Latest Weather Observations for Stenhouse Bay

IDS60801

Issued at 2:01 am CDT Wednesday 19 February 2020 (issued every 10 minutes, with the page automatically refreshed every 10 minutes)

About weather observations | Map of weather stations | Latest weather observations for SA | Other Formats
Station Details ID: 022049 Name: STENHOUSE BAY Lat: -35.28 Lon: 136.94 Height: 42.0 m
Data from the previous 72 hours. | See also: Recent months at Stenhouse Bay
Date/Time
CDT
Temp
°C
App
Temp
°C
Dew
Point
°C
Rel
Hum
%
Delta-T
°C
Wind Press
QNH
hPa
Press
MSL
hPa
Rain since
9am
mm
Dir  Spd
km/h
Gust
km/h
Spd
kts
Gust
kts
19/02:00am 15.6 9.0 7.6 59 4.0 SSE 32 39 17 21 1018.4 1018.3 0.2
19/01:30am 15.6 8.8 7.6 59 4.0 S 33 44 18 24 1018.8 1018.7 0.2
19/01:00am 15.7 9.1 8.4 62 3.7 SSE 33 41 18 22 1019.0 1018.9 0.2
19/12:30am 15.7 9.8 7.7 59 4.0 S 28 37 15 20 1019.2 1019.1 0.2
19/12:00am 15.9 9.2 7.4 57 4.2 S 32 37 17 20 1019.2 1019.1 0.2
 
Date/Time
CDT
Temp
°C
App
Temp
°C
Dew
Point
°C
Rel
Hum
%
Delta-T
°C
Wind Press
QNH
hPa
Press
MSL
hPa
Rain since
9am
mm
Dir  Spd
km/h
Gust
km/h
Spd
kts
Gust
kts
18/11:30pm 16.0 9.1 7.2 56 4.4 S 33 44 18 24 1019.3 1019.2 0.2
18/11:00pm 16.0 8.0 7.5 57 4.2 S 39 48 21 26 1019.3 1019.2 0.2
18/10:30pm 15.8 8.8 6.8 55 4.4 S 33 44 18 24 1019.3 1019.2 0.2
18/10:00pm 16.0 7.1 7.0 55 4.4 S 43 52 23 28 1019.2 1019.1 0.2
18/09:30pm 15.9 7.8 6.9 55 4.4 S 39 50 21 27 1019.0 1018.9 0.2
18/09:00pm 16.1 8.1 7.6 57 4.2 S 39 50 21 27 1019.0 1018.9 0.2
18/08:30pm 16.4 7.6 8.1 58 4.2 S 44 54 24 29 1018.4 1018.3 0.2
18/08:00pm 16.9 9.2 8.6 58 4.3 S 39 54 21 29 1018.1 1018.0 0.2
18/07:30pm 17.1 9.8 8.8 58 4.3 S 37 46 20 25 1017.9 1017.8 0.2
18/07:00pm 17.8 11.2 8.4 54 4.8 S 33 43 18 23 1017.9 1017.8 0.2
18/06:30pm 17.8 11.1 8.1 53 5.0 S 33 44 18 24 1017.9 1017.8 0.2
18/06:00pm 18.4 12.0 8.7 53 5.0 S 32 39 17 21 1017.8 1017.7 0.2
18/05:30pm 18.8 11.6 9.0 53 5.1 S 37 48 20 26 1017.4 1017.2 0.2
18/05:00pm 19.2 12.9 9.7 54 5.1 SSW 33 48 18 26 1017.0 1016.8 0.2
18/04:30pm 19.0 12.9 10.3 57 4.7 SSW 33 48 18 26 1017.0 1016.8 0.2
18/04:00pm 18.9 12.8 9.7 55 4.9 SSW 32 43 17 23 1016.8 1016.6 0.2
18/03:30pm 19.0 12.9 10.3 57 4.7 SSW 33 44 18 24 1016.8 1016.6 0.2
18/03:00pm 19.2 12.9 11.0 59 4.5 SSW 35 48 19 26 1016.9 1016.7 0.2
18/02:30pm 18.6 12.6 12.1 66 3.6 SSW 35 52 19 28 1016.9 1016.7 0.2
18/02:12pm 18.6 13.0 12.1 66 3.6 SSW 33 52 18 28 1016.7 1016.5 0.2
18/02:00pm 18.4 12.5 12.4 68 3.3 SSW 35 46 19 25 1016.7 1016.5 0.2
18/01:30pm 19.1 12.8 12.4 65 3.7 SSW 37 52 20 28 1016.5 1016.3 0.2
18/01:00pm 19.1 11.9 11.9 63 4.0 SSW 41 59 22 32 1016.4 1016.2 0.2
18/12:30pm 19.0 11.4 12.5 66 3.6 SSW 44 59 24 32 1016.2 1016.0 0.2
18/12:06pm 18.6 12.7 13.5 72 2.9 SSW 37 56 20 30 1016.4 1016.2 0.2
18/12:00pm 18.8 11.8 12.5 67 3.5 SSW 41 57 22 31 1016.5 1016.3 0.2
18/11:30am 18.5 11.1 13.1 71 3.0 SSW 44 67 24 36 1016.3 1016.1 0.2
18/11:05am 18.3 12.4 13.6 74 2.7 SSW 37 57 20 31 1016.1 1015.9 0.2
18/11:00am 18.0 12.4 13.3 74 2.7 SSW 35 52 19 28 1016.1 1015.9 0.2
18/10:33am 17.8 11.8 13.3 75 2.5 SW 37 56 20 30 1015.9 1015.7 0.2
18/10:30am 18.1 12.2 13.6 75 2.6 SW 37 56 20 30 1016.0 1015.8 0.2
18/10:12am 17.7 12.0 13.0 74 2.6 SW 35 54 19 29 1015.8 1015.6 0.2
18/10:00am 17.6 11.5 13.1 75 2.5 SW 37 54 20 29 1015.7 1015.5 0.2
18/09:36am 17.4 10.7 13.3 77 2.3 SW 41 59 22 32 1015.5 1015.3 0.2
18/09:30am 17.1 10.1 12.6 75 2.5 SW 41 57 22 31 1015.4 1015.2 0.2
18/09:00am 17.2 11.1 12.9 76 2.4 SW 37 57 20 31 1015.2 1015.0 1.2
18/08:33am 16.6 10.9 12.9 79 2.1 SW 35 54 19 29 1014.9 1014.7 1.2
18/08:30am 16.4 11.0 12.9 80 1.9 SSW 33 52 18 28 1014.8 1014.6 1.2
18/08:06am 16.7 10.9 12.8 78 2.2 SW 35 56 19 30 1014.2 1014.0 1.2
18/08:00am 16.5 10.0 13.0 80 2.0 SW 39 54 21 29 1014.1 1013.9 1.2
18/07:36am 16.6 10.3 12.4 76 2.3 SSW 37 57 20 31 1013.8 1013.6 1.2
18/07:30am 16.8 10.7 13.1 79 2.1 SSW 37 54 20 29 1013.5 1013.3 1.2
18/07:00am 16.7 10.5 13.8 83 1.6 SW 39 59 21 32 1013.0 1012.8 1.2
18/06:30am 16.7 10.6 14.2 85 1.4 SW 39 61 21 33 1012.4 1012.2 1.2
18/06:09am 16.8 10.4 14.4 86 1.4 SW 41 61 22 33 1012.3 1012.1 1.2
18/06:00am 16.6 10.1 14.1 85 1.4 SW 41 57 22 31 1012.2 1012.0 1.2
18/05:49am 16.6 10.1 14.1 85 1.4 SW 41 63 22 34 1012.0 1011.8 1.2
18/05:30am 17.1 10.1 14.2 83 1.7 SW 44 59 24 32 1011.8 1011.6 1.0
18/05:20am 17.2 12.1 14.8 86 1.4 SW 35 54 19 29 1011.8 1011.6 1.0
18/05:00am 17.0 10.1 14.6 86 1.4 SW 44 59 24 32 1011.6 1011.4 1.0
18/04:49am 17.1 10.4 15.1 88 1.2 SW 44 63 24 34 1011.3 1011.1 1.0
18/04:30am 17.4 11.8 15.4 88 1.2 SW 39 54 21 29 1011.2 1011.0 1.0
18/04:24am 17.6 14.1 15.4 87 1.3 WSW 28 50 15 27 1011.2 1011.0 1.0
18/04:00am 17.9 15.4 14.0 78 2.2 WSW 20 28 11 15 1011.2 1011.0 0.0
18/03:30am 17.8 14.9 13.9 78 2.2 SW 22 35 12 19 1011.4 1011.2 0.0
18/03:00am 17.7 14.0 13.8 78 2.2 SW 26 35 14 19 1011.1 1010.9 0.0
18/02:30am 17.9 13.8 13.8 77 2.3 SW 28 41 15 22 1011.2 1011.0 0.0
18/02:00am 17.7 12.7 14.0 79 2.1 SW 33 46 18 25 1011.3 1011.1 0.0
18/01:30am 18.0 14.3 13.9 77 2.3 SW 26 33 14 18 1011.2 1011.0 0.0
18/01:00am 18.1 15.4 13.4 74 2.7 SSW 20 28 11 15 1011.2 1011.0 0.0
18/12:30am 18.3 16.0 14.6 79 2.1 SW 20 37 11 20 1011.1 1010.9 0.0
18/12:00am 18.9 16.7 14.8 77 2.4 SW 20 33 11 18 1011.2 1011.0 0.0
 
Date/Time
CDT
Temp
°C
App
Temp
°C
Dew
Point
°C
Rel
Hum
%
Delta-T
°C
Wind Press
QNH
hPa
Press
MSL
hPa
Rain since
9am
mm
Dir  Spd
km/h
Gust
km/h
Spd
kts
Gust
kts
17/11:30pm 19.2 18.3 13.8 71 3.1 S 11 15 6 8 1011.0 1010.8 0.0
17/11:00pm 19.7 18.3 14.5 72 3.0 S 15 19 8 10 1011.4 1011.2 0.0
17/10:30pm 20.1 20.6 16.5 80 2.2 S 9 13 5 7 1011.3 1011.1 0.0
17/10:00pm 20.1 20.7 16.7 81 2.1 ESE 9 11 5 6 1010.8 1010.6 0.0
17/09:30pm 19.8 20.4 15.9 78 2.3 SSE 7 9 4 5 1010.7 1010.5 0.0
17/09:00pm 19.9 19.8 16.0 78 2.3 ESE 11 13 6 7 1010.0 1009.8 0.0
17/08:30pm 20.3 20.3 16.3 78 2.4 SE 11 17 6 9 1009.9 1009.7 0.0
17/08:00pm 20.5 20.8 16.1 76 2.6 SE 9 15 5 8 1010.1 1009.9 0.0
17/07:30pm 21.0 21.2 15.8 72 3.1 SE 9 13 5 7 1009.3 1009.1 0.0
17/07:00pm 21.0 20.3 15.5 71 3.3 ESE 13 15 7 8 1009.2 1009.0 0.0
17/06:30pm 21.6 21.4 14.7 65 4.1 SE 9 13 5 7 1009.7 1009.5 0.0
17/06:00pm 21.4 21.2 14.6 65 4.0 SE 9 13 5 7 1009.9 1009.7 0.0
17/05:30pm 21.5 19.7 14.4 64 4.2 SSE 17 20 9 11 1010.2 1010.0 0.0
17/05:00pm 22.4 20.5 14.3 60 4.8 S 17 20 9 11 1011.2 1011.0 0.0
17/04:30pm 22.6 21.8 15.0 62 4.5 S 13 17 7 9 1011.0 1010.8 0.0
17/04:00pm 23.8 23.1 15.3 59 5.1 S 13 17 7 9 1011.3 1011.1 0.0
17/03:30pm 23.2 22.6 14.5 58 5.1 SSE 11 15 6 8 1011.5 1011.3 0.0
17/03:00pm 22.8 22.1 14.4 59 5.0 SE 11 13 6 7 1011.6 1011.4 0.0
17/02:30pm 22.7 21.9 14.0 58 5.1 E 11 13 6 7 1011.8 1011.6 0.0
17/02:00pm 22.7 21.3 13.5 56 5.3 E 13 17 7 9 1011.7 1011.5 0.0
17/01:30pm 23.1 21.4 13.6 55 5.5 E 15 19 8 10 1012.3 1012.1 0.0
17/01:00pm 23.3 21.8 14.3 57 5.3 E 15 19 8 10 1012.8 1012.6 0.0
17/12:30pm 22.9 22.1 15.0 61 4.7 ESE 13 17 7 9 1013.3 1013.1 0.0
17/12:00pm 22.0 21.3 14.4 62 4.5 E 11 15 6 8 1013.4 1013.2 0.0
17/11:30am 21.4 20.7 14.3 64 4.2 E 11 15 6 8 1013.4 1013.2 0.0
17/11:00am 20.7 19.8 13.6 64 4.1 ENE 11 17 6 9 1013.5 1013.3 0.0
17/10:30am 20.5 19.1 13.5 64 4.0 E 13 15 7 8 1013.6 1013.4 0.0
17/10:00am 20.0 18.5 13.2 65 3.9 ESE 13 17 7 9 1013.6 1013.4 0.0
17/09:30am 20.2 18.0 13.4 65 3.9 ESE 17 22 9 12 1013.0 1012.8 0.0
17/09:00am 19.3 17.0 13.0 67 3.6 E 17 20 9 11 1012.9 1012.7 0.0
17/08:30am 18.8 17.2 12.8 68 3.4 ESE 13 19 7 10 1012.9 1012.7 0.0
17/08:00am 17.7 15.6 12.4 71 2.9 E 15 20 8 11 1013.0 1012.8 0.0
17/07:30am 16.9 14.9 12.6 76 2.4 E 15 19 8 10 1013.0 1012.8 0.0
17/07:00am 16.3 13.9 12.5 78 2.1 ESE 17 20 9 11 1012.6 1012.4 0.0
17/06:30am 16.2 14.0 12.2 77 2.2 ESE 15 20 8 11 1012.6 1012.4 0.0
17/06:00am 16.1 13.8 11.9 76 2.3 ESE 15 20 8 11 1012.4 1012.2 0.0
17/05:30am 16.1 13.8 11.9 76 2.3 SE 15 19 8 10 1012.2 1012.0 0.0
17/05:00am 15.9 14.0 11.7 76 2.3 SE 13 17 7 9 1012.4 1012.2 0.0
17/04:30am 16.0 14.4 11.6 75 2.4 ESE 11 15 6 8 1012.6 1012.4 0.0
17/04:00am 16.1 14.2 11.9 76 2.3 ESE 13 17 7 9 1012.3 1012.1 0.0
17/03:30am 16.1 13.8 11.7 75 2.4 ESE 15 19 8 10 1012.3 1012.1 0.0
17/03:00am 16.2 13.9 11.6 74 2.5 ESE 15 19 8 10 1012.5 1012.3 0.0
17/02:30am 16.3 14.0 11.7 74 2.5 ESE 15 19 8 10 1012.8 1012.6 0.0
17/02:00am 16.5 14.2 11.9 74 2.5 E 15 19 8 10 1012.9 1012.7 0.0
17/01:30am 16.6 13.9 11.7 73 2.7 E 17 22 9 12 1013.1 1012.9 0.0
17/01:00am 16.5 13.7 11.4 72 2.8 ESE 17 20 9 11 1013.6 1013.4 0.0
17/12:30am 16.6 14.2 11.5 72 2.8 ESE 15 20 8 11 1013.7 1013.5 0.0
17/12:00am 16.9 13.7 11.8 72 2.8 E 20 28 11 15 1013.5 1013.3 0.0
 
Date/Time
CDT
Temp
°C
App
Temp
°C
Dew
Point
°C
Rel
Hum
%
Delta-T
°C
Wind Press
QNH
hPa
Press
MSL
hPa
Rain since
9am
mm
Dir  Spd
km/h
Gust
km/h
Spd
kts
Gust
kts
16/11:30pm 17.0 13.7 11.7 71 2.9 ESE 20 26 11 14 1013.9 1013.7 0.0
16/11:00pm 17.3 13.7 11.8 70 3.0 ESE 22 28 12 15 1014.1 1013.9 0.0
16/10:30pm 17.7 14.1 11.9 69 3.2 E 22 28 12 15 1014.2 1014.0 0.0
16/10:00pm 17.9 14.3 11.9 68 3.3 E 22 30 12 16 1014.1 1013.9 0.0
16/09:30pm 18.2 14.3 12.2 68 3.3 E 24 32 13 17 1013.9 1013.7 0.0
16/09:00pm 18.3 15.3 11.8 66 3.6 ENE 19 26 10 14 1013.8 1013.6 0.0
16/08:30pm 18.4 15.7 11.7 65 3.7 ENE 17 22 9 12 1013.8 1013.6 0.0
16/08:00pm 18.6 16.3 11.7 64 3.8 ENE 15 20 8 11 1013.8 1013.6 0.0
16/07:30pm 19.1 17.6 11.9 63 4.0 ENE 11 15 6 8 1014.0 1013.8 0.0
16/07:00pm 19.9 18.5 12.2 61 4.3 E 11 19 6 10 1013.8 1013.6 0.0
16/06:30pm 20.9 19.5 11.0 53 5.4 E 9 15 5 8 1013.7 1013.5 0.0
16/06:00pm 20.6 19.6 11.0 54 5.3 E 7 9 4 5 1013.9 1013.7 0.0
16/05:30pm 21.3 20.0 11.3 53 5.5 ESE 9 13 5 7 1013.8 1013.6 0.0
16/05:00pm 21.6 20.2 11.0 51 5.9 ESE 9 13 5 7 1014.0 1013.8 0.0
16/04:30pm 21.2 19.9 11.2 53 5.5 ESE 9 13 5 7 1013.9 1013.7 0.0
16/04:00pm 21.6 19.9 11.3 52 5.7 E 11 15 6 8 1014.1 1013.9 0.0
16/03:30pm 21.6 20.1 10.4 49 6.1 E 9 13 5 7 1014.4 1014.2 0.0
16/03:00pm 21.6 19.7 10.4 49 6.1 E 11 15 6 8 1014.7 1014.5 0.0
16/02:30pm 21.7 20.2 10.5 49 6.1 E 9 13 5 7 1015.0 1014.8 0.0
16/02:00pm 21.0 19.4 10.2 50 5.9 SE 9 15 5 8 1015.3 1015.1 0.0
16/01:30pm 21.3 19.9 10.8 51 5.8 ESE 9 15 5 8 1015.4 1015.2 0.0
16/01:00pm 20.7 18.6 9.9 50 5.8 SE 11 17 6 9 1015.7 1015.5 0.0
16/12:30pm 20.7 17.9 9.9 50 5.8 SSE 15 20 8 11 1016.1 1015.9 0.0
16/12:00pm 20.5 17.8 10.3 52 5.5 SE 15 19 8 10 1016.3 1016.1 0.0
16/11:30am 20.5 17.7 10.0 51 5.7 SE 15 22 8 12 1016.4 1016.2 0.0
16/11:00am 20.3 16.7 9.8 51 5.6 SE 19 24 10 13 1016.4 1016.2 0.0
16/10:30am 19.7 16.1 9.9 53 5.2 SE 19 24 10 13 1016.3 1016.1 0.0
16/10:00am 18.8 15.2 10.6 59 4.4 SE 20 28 11 15 1016.3 1016.1 0.0
16/09:30am 18.0 13.7 10.9 63 3.8 SE 24 33 13 18 1016.4 1016.2 0.0
16/09:00am 17.9 14.6 11.7 67 3.4 SE 20 28 11 15 1016.6 1016.4 0.0
16/08:30am 17.0 12.7 10.8 67 3.3 SE 24 30 13 16 1016.2 1016.0 0.0
16/08:00am 17.6 14.1 12.1 70 3.0 SE 22 35 12 19 1015.9 1015.7 0.0
16/07:30am 16.8 13.3 10.2 65 3.5 SE 19 26 10 14 1015.5 1015.3 0.0
16/07:00am 16.9 13.4 11.0 68 3.2 SE 20 28 11 15 1015.2 1015.0 0.0
16/06:30am 16.8 13.2 9.7 63 3.7 SE 19 26 10 14 1014.8 1014.6 0.0
16/06:00am 16.9 12.8 10.1 64 3.6 SE 22 32 12 17 1014.7 1014.5 0.0
16/05:30am 17.0 13.3 10.1 64 3.6 SSE 20 32 11 17 1014.4 1014.2 0.0
16/05:00am 16.9 13.4 10.1 64 3.6 SE 19 26 10 14 1014.6 1014.4 0.0
16/04:30am 16.9 13.2 10.3 65 3.5 SE 20 28 11 15 1014.5 1014.3 0.0
16/04:00am 16.8 13.4 10.4 66 3.4 SE 19 26 10 14 1014.7 1014.5 0.0
16/03:30am 16.9 13.5 10.7 67 3.3 SE 19 26 10 14 1014.8 1014.6 0.0
16/03:00am 16.8 13.1 10.2 65 3.5 SE 20 28 11 15 1014.7 1014.5 0.0
16/02:30am 17.2 13.3 10.8 66 3.4 SE 22 32 12 17 1015.0 1014.8 0.0

Other formats

Comma delimited format used in spreadsheet applications
http://www.bom.gov.au/fwo/IDS60801/IDS60801.95806.axf

JavaScript Object Notation format (JSON) in row-major order
http://www.bom.gov.au/fwo/IDS60801/IDS60801.95806.json

Data quality

Most of these data are generated automatically and are frequently updated. Quality checks on data are not normally performed. It is possible for incorrect values to appear. Refer to information at About Latest Weather Observations and please check the disclaimer before using these data.